RJFN(METAR)
10/21 04:10
RJFN 201910Z 33004KT 9999 FEW030 BKN050 16/11 Q1022 RMK 1CU030
5SC050 A3018=
戻る
トップページへ戻る
IMOC Co,.Ltd.